Time;durP1;ratioP1;P1;durP2;ratioP2;P2;SDS_P1;SDS_P2;PMS_P1;PMS_P2;Temp;Humidity;BMP_temperature;BMP_pressure;BME280_temperature;BME280_humidity;BME280_pressure;Samples;Min_cycle;Max_cycle;Signal;HPM_P1;HPM_P2
2022/05/25 00:01:35;;;;;;;15.77;8.43;;;;;;;17.58;80.75;94712.59;5051190;28;20175;-81
2022/05/25 00:04:02;;;;;;;13.00;8.35;;;;;;;17.58;80.88;94713.41;5050965;28;20538;-81
2022/05/25 00:06:28;;;;;;;12.63;7.43;;;;;;;17.32;80.55;94669.88;5050596;28;20190;-81
2022/05/25 00:08:54;;;;;;;7.97;6.57;;;;;;;17.59;80.48;94709.69;5045033;28;20171;-81
2022/05/25 00:11:20;;;;;;;9.68;6.93;;;;;;;17.59;80.29;94712.34;5038274;28;20225;-81
2022/05/25 00:13:45;;;;;;;10.35;7.38;;;;;;;17.55;80.73;94715.81;5035392;28;20175;-81
2022/05/25 00:16:11;;;;;;;17.08;8.93;;;;;;;17.49;80.96;94717.63;5039438;28;20213;-81
2022/05/25 00:18:36;;;;;;;17.83;7.75;;;;;;;17.34;80.98;94696.22;5041014;28;20235;-81
2022/05/25 00:21:03;;;;;;;11.68;8.45;;;;;;;17.39;81.46;94709.56;5037581;28;20210;-81
2022/05/25 00:23:29;;;;;;;10.75;7.15;;;;;;;17.28;81.48;94697.25;5044454;28;20178;-82
2022/05/25 00:25:55;;;;;;;13.88;8.35;;;;;;;17.12;81.72;94677.75;5047523;28;20571;-82
2022/05/25 00:28:20;;;;;;;10.43;7.93;;;;;;;17.32;81.62;94709.78;5048719;28;20225;-82
2022/05/25 00:30:46;;;;;;;12.82;7.97;;;;;;;17.26;81.77;94704.69;5036975;28;20209;-82
2022/05/25 00:33:12;;;;;;;9.95;6.75;;;;;;;16.90;82.26;94648.59;5054659;28;20214;-83
2022/05/25 00:35:38;;;;;;;15.48;7.88;;;;;;;17.30;82.01;94708.44;5054725;28;20206;-83
2022/05/25 00:38:06;;;;;;;15.52;8.48;;;;;;;16.78;82.39;94639.97;5054729;28;20186;-83
2022/05/25 00:40:41;;;;;;;15.20;9.80;;;;;;;17.26;82.16;94718.00;5054078;28;20254;-82
2022/05/25 00:43:08;;;;;;;10.27;6.90;;;;;;;17.23;81.95;94713.19;5036624;28;20186;-83
2022/05/25 00:45:42;;;;;;;10.48;7.65;;;;;;;17.23;81.70;94719.31;5054521;28;20182;-83
2022/05/25 00:48:13;;;;;;;11.07;6.97;;;;;;;17.18;81.98;94723.78;5054308;28;20205;-82
2022/05/25 00:53:22;;;;;;;15.05;8.48;;;;;;;16.73;82.05;94649.78;5054471;28;20262;-83
2022/05/25 00:55:48;;;;;;;11.30;6.72;;;;;;;16.92;82.02;94678.38;5036428;28;20286;-83
2022/05/25 00:58:14;;;;;;;13.75;8.68;;;;;;;16.92;82.14;94690.88;5054451;28;20183;-83
2022/05/25 01:00:39;;;;;;;13.98;6.85;;;;;;;17.00;82.20;94701.03;5054340;28;20190;-83
2022/05/25 01:03:08;;;;;;;12.38;7.50;;;;;;;16.88;82.14;94685.25;5053011;28;20206;-83
2022/05/25 01:05:51;;;;;;;13.60;7.07;;;;;;;16.81;82.19;94687.31;5054411;28;20266;-83
2022/05/25 01:08:35;;;;;;;18.60;8.38;;;;;;;17.01;82.32;94720.47;5054226;28;20174;-81
2022/05/25 01:11:16;;;;;;;14.43;7.50;;;;;;;16.91;82.72;94719.31;5051955;28;20224;-81
2022/05/25 01:13:49;;;;;;;11.40;7.22;;;;;;;16.80;83.15;94720.28;5053546;28;20171;-81
2022/05/25 01:16:24;;;;;;;14.65;7.97;;;;;;;16.82;83.63;94725.34;5035888;28;20210;-81
2022/05/25 01:19:08;;;;;;;17.27;7.47;;;;;;;16.81;83.29;94726.41;5051229;28;20222;-81
2022/05/25 01:22:00;;;;;;;12.32;7.20;;;;;;;16.77;83.44;94738.63;5053988;28;20178;-81
2022/05/25 01:24:33;;;;;;;11.23;7.10;;;;;;;16.72;83.59;94734.03;5053241;28;20163;-81
2022/05/25 01:27:18;;;;;;;9.00;7.82;;;;;;;16.70;83.72;94730.81;5053300;28;20179;-81
2022/05/25 01:29:59;;;;;;;13.73;8.07;;;;;;;16.71;83.58;94736.94;5052088;28;20569;-81
2022/05/25 01:32:41;;;;;;;11.88;8.15;;;;;;;16.44;83.90;94697.84;5052305;28;20183;-81
2022/05/25 01:35:07;;;;;;;14.23;8.00;;;;;;;16.68;83.65;94732.94;5053131;28;20282;-81
2022/05/25 01:37:46;;;;;;;13.60;6.65;;;;;;;16.67;83.56;94731.34;5053869;28;20324;-81
2022/05/25 01:40:21;;;;;;;9.25;6.75;;;;;;;16.67;83.47;94735.84;5054535;28;20242;-82
2022/05/25 01:42:55;;;;;;;17.10;7.88;;;;;;;16.57;83.38;94731.22;5054782;28;20167;-82
2022/05/25 01:45:25;;;;;;;14.15;8.30;;;;;;;16.46;83.71;94719.66;5044510;28;20631;-82
2022/05/25 01:47:51;;;;;;;8.77;6.45;;;;;;;16.40;83.47;94701.28;5042338;28;20159;-82
2022/05/25 01:50:24;;;;;;;11.70;6.60;;;;;;;16.33;83.07;94695.34;5043945;28;20264;-81
2022/05/25 01:52:55;;;;;;;11.20;6.50;;;;;;;16.56;83.10;94749.00;5052897;28;20301;-81
2022/05/25 01:55:25;;;;;;;13.88;9.90;;;;;;;16.33;83.45;94713.97;5034237;28;20589;-81
2022/05/25 01:57:56;;;;;;;12.25;8.73;;;;;;;16.51;83.70;94748.16;5035104;28;20720;-81
2022/05/25 02:00:37;;;;;;;8.45;7.10;;;;;;;16.31;83.73;94726.69;5035362;28;20258;-81
2022/05/25 02:06:08;;;;;;;10.45;6.25;;;;;;;16.17;85.01;94756.25;5053271;28;20236;-81
2022/05/25 02:09:07;;;;;;;8.43;6.78;;;;;;;16.18;85.32;94757.88;5052763;28;20171;-81
2022/05/25 02:11:37;;;;;;;9.45;6.28;;;;;;;16.20;85.11;94771.72;5052031;28;20210;-81
2022/05/25 02:14:21;;;;;;;16.10;9.27;;;;;;;16.19;85.37;94766.66;5053283;28;20257;-81
2022/05/25 02:17:00;;;;;;;13.70;7.75;;;;;;;16.18;85.15;94757.06;5051948;28;20175;-81
2022/05/25 02:19:37;;;;;;;12.82;8.88;;;;;;;16.08;85.06;94736.53;5041686;28;20607;-81
2022/05/25 02:22:33;;;;;;;21.45;9.10;;;;;;;16.27;84.81;94773.38;5052094;28;20193;-81
2022/05/25 02:25:30;;;;;;;10.55;7.22;;;;;;;16.20;84.99;94779.69;5042636;28;20591;-81
2022/05/25 02:28:43;;;;;;;19.98;7.82;;;;;;;16.09;84.81;94761.22;5038453;28;20191;-80
2022/05/25 02:31:14;;;;;;;8.80;7.28;;;;;;;16.15;84.51;94776.97;5048230;28;20214;-82
2022/05/25 02:33:44;;;;;;;11.32;8.98;;;;;;;15.88;84.97;94743.44;5031065;28;20258;-82
2022/05/25 02:36:11;;;;;;;13.73;9.43;;;;;;;16.07;85.49;94773.94;5051754;28;20191;-81
2022/05/25 02:38:39;;;;;;;12.07;8.60;;;;;;;16.15;85.47;94786.81;5052442;28;20178;-81
2022/05/25 02:41:10;;;;;;;14.32;8.52;;;;;;;15.71;85.41;94717.75;5052387;28;20688;-82
2022/05/25 02:43:38;;;;;;;25.23;10.48;;;;;;;16.15;85.26;94792.09;5048237;28;20206;-82
2022/05/25 02:46:06;;;;;;;18.40;8.90;;;;;;;15.76;85.14;94724.97;5052327;28;20169;-83
2022/05/25 02:48:35;;;;;;;11.83;8.33;;;;;;;15.62;84.83;94703.28;5052202;28;20193;-82
2022/05/25 02:51:01;;;;;;;12.63;8.48;;;;;;;16.05;85.23;94790.13;5052258;28;20638;-82
2022/05/25 02:53:26;;;;;;;14.93;9.02;;;;;;;15.58;85.49;94728.69;5052404;28;20183;-82
2022/05/25 02:55:52;;;;;;;12.57;8.38;;;;;;;15.88;85.74;94784.06;5034195;28;20198;-82
2022/05/25 02:58:18;;;;;;;15.48;9.23;;;;;;;15.82;85.76;94788.50;5034050;28;20631;-81
2022/05/25 03:00:44;;;;;;;17.55;10.10;;;;;;;15.18;86.25;94683.81;5051879;28;20199;-81
2022/05/25 03:03:12;;;;;;;19.13;8.98;;;;;;;15.76;86.43;94796.63;5051748;28;20186;-83
2022/05/25 03:05:41;;;;;;;10.90;7.90;;;;;;;15.89;86.04;94800.78;5048092;28;20159;-73
2022/05/25 03:08:07;;;;;;;13.02;8.52;;;;;;;15.88;85.76;94802.63;5050167;28;20704;-74
2022/05/25 03:10:33;;;;;;;11.95;9.57;;;;;;;15.93;85.55;94805.34;5049724;28;20187;-74
2022/05/25 03:12:59;;;;;;;17.48;9.10;;;;;;;15.90;85.99;94808.53;5050054;28;20171;-74
2022/05/25 03:15:25;;;;;;;15.77;9.45;;;;;;;15.88;85.47;94796.53;5049655;28;20215;-74
2022/05/25 03:17:51;;;;;;;14.75;10.07;;;;;;;16.00;85.83;94815.81;5050258;28;20254;-74
2022/05/25 03:20:17;;;;;;;24.83;9.90;;;;;;;16.01;85.80;94820.06;5049996;28;20206;-74
2022/05/25 03:22:46;;;;;;;15.98;9.40;;;;;;;16.07;85.67;94819.91;5049673;28;20218;-74
2022/05/25 03:25:11;;;;;;;14.23;8.75;;;;;;;16.11;85.46;94822.84;5049479;28;20182;-74
2022/05/25 03:27:37;;;;;;;16.63;10.23;;;;;;;16.14;85.18;94828.50;5048184;28;20183;-74
2022/05/25 03:30:05;;;;;;;17.75;9.90;;;;;;;16.17;84.95;94832.50;5049857;28;20232;-74
2022/05/25 03:32:31;;;;;;;14.52;9.30;;;;;;;16.16;84.95;94839.69;5048819;28;20642;-74
2022/05/25 03:34:57;;;;;;;16.73;9.50;;;;;;;16.18;85.30;94834.91;5049179;28;20202;-74
2022/05/25 03:37:23;;;;;;;13.13;8.80;;;;;;;16.22;85.05;94848.50;5049846;28;20171;-74
2022/05/25 03:39:49;;;;;;;15.35;9.80;;;;;;;16.32;84.99;94845.19;5049110;28;20178;-74
2022/05/25 03:42:16;;;;;;;16.70;10.73;;;;;;;16.41;84.87;94854.34;5050164;28;20297;-74
2022/05/25 03:44:42;;;;;;;19.15;10.20;;;;;;;16.43;84.55;94846.94;5049704;28;20228;-74
2022/05/25 03:47:07;;;;;;;18.88;9.25;;;;;;;16.43;84.48;94857.56;5046583;28;20183;-74
2022/05/25 03:49:32;;;;;;;16.80;9.70;;;;;;;16.52;84.76;94858.69;5049114;28;20575;-75
2022/05/25 03:51:58;;;;;;;13.15;9.30;;;;;;;16.61;85.09;94867.88;5046507;28;20222;-74
2022/05/25 03:54:24;;;;;;;13.15;9.32;;;;;;;16.70;84.75;94863.75;5046852;28;20228;-74
2022/05/25 03:56:49;;;;;;;18.10;10.70;;;;;;;16.87;83.87;94871.63;5037989;28;20179;-75
2022/05/25 03:59:15;;;;;;;12.10;9.07;;;;;;;17.00;83.42;94867.81;5043169;28;20203;-74
2022/05/25 04:01:41;;;;;;;13.27;8.90;;;;;;;17.14;82.70;94864.47;5042516;28;20189;-74
2022/05/25 04:04:06;;;;;;;14.68;9.45;;;;;;;17.30;82.50;94868.09;5043839;28;20179;-74
2022/05/25 04:06:32;;;;;;;13.20;8.18;;;;;;;17.41;81.86;94866.31;5041355;28;20218;-74
2022/05/25 04:08:58;;;;;;;14.45;8.70;;;;;;;17.57;81.37;94870.72;5043453;28;20175;-74
2022/05/25 04:11:23;;;;;;;16.92;8.63;;;;;;;17.67;80.95;94870.84;5049807;28;20571;-74
2022/05/25 04:13:49;;;;;;;12.55;8.52;;;;;;;17.83;80.72;94882.41;5050959;28;20181;-74
2022/05/25 04:16:14;;;;;;;15.13;8.25;;;;;;;17.99;79.47;94870.81;5049260;28;20280;-74
2022/05/25 04:18:40;;;;;;;12.77;8.10;;;;;;;18.15;79.49;94869.06;5048652;28;20802;-74
2022/05/25 04:21:05;;;;;;;11.07;8.00;;;;;;;18.33;78.20;94872.13;5048709;28;20266;-74
2022/05/25 04:23:31;;;;;;;10.95;7.40;;;;;;;18.53;77.64;94874.06;5049110;28;20160;-74
2022/05/25 04:25:56;;;;;;;13.80;8.65;;;;;;;18.65;76.38;94876.56;5049028;28;20183;-74
2022/05/25 04:28:22;;;;;;;19.92;9.07;;;;;;;18.89;76.61;94874.22;5048679;28;20178;-74
2022/05/25 04:30:48;;;;;;;13.13;9.40;;;;;;;19.09;76.35;94875.09;5049059;28;20181;-74
2022/05/25 04:33:14;;;;;;;14.18;9.18;;;;;;;19.31;75.49;94877.53;5048707;28;20653;-74
2022/05/25 04:35:40;;;;;;;11.90;9.45;;;;;;;19.53;73.56;94880.03;5030944;28;20570;-74
2022/05/25 04:38:06;;;;;;;13.65;8.60;;;;;;;19.73;72.65;94879.22;5048688;28;20232;-74
2022/05/25 04:40:36;;;;;;;16.35;9.68;;;;;;;19.91;72.12;94887.50;5047537;28;20175;-74
2022/05/25 04:43:06;;;;;;;9.93;8.90;;;;;;;20.05;70.84;94881.63;5049662;28;20201;-73
2022/05/25 04:45:32;;;;;;;14.00;9.13;;;;;;;20.22;70.82;94882.94;5048641;28;20190;-75
2022/05/25 04:48:01;;;;;;;14.13;9.27;;;;;;;20.43;70.41;94886.38;5048474;28;20179;-74
2022/05/25 04:50:30;;;;;;;12.95;9.05;;;;;;;20.40;69.24;94872.78;5046878;28;20175;-74
2022/05/25 04:52:59;;;;;;;20.63;9.75;;;;;;;20.36;69.31;94861.00;5048157;28;20167;-74
2022/05/25 04:58:22;;;;;;;14.40;9.27;;;;;;;20.67;69.05;94879.34;5048999;28;20185;-74
2022/05/25 05:00:48;;;;;;;17.80;9.65;;;;;;;20.77;69.42;94872.38;5047343;28;20198;-74
2022/05/25 05:03:17;;;;;;;20.52;9.30;;;;;;;21.27;67.60;94885.56;5048241;28;20175;-74
2022/05/25 05:05:43;;;;;;;14.75;9.77;;;;;;;21.63;65.74;94891.47;5048681;28;20262;-75
2022/05/25 05:08:09;;;;;;;14.70;10.07;;;;;;;21.91;64.72;94873.03;5051134;28;20262;-83
2022/05/25 05:10:35;;;;;;;13.82;9.52;;;;;;;22.43;63.96;94888.41;5035447;28;20217;-80
2022/05/25 05:13:04;;;;;;;13.20;9.73;;;;;;;22.92;62.16;94890.84;5053599;28;20251;-80
2022/05/25 05:15:32;;;;;;;19.23;11.95;;;;;;;23.56;60.08;94901.03;5052235;28;20199;-80
2022/05/25 05:17:57;;;;;;;17.05;11.93;;;;;;;24.10;58.68;94901.56;5053580;28;20261;-80
2022/05/25 05:20:23;;;;;;;14.68;10.50;;;;;;;24.62;56.22;94884.25;5053529;28;20628;-80
2022/05/25 05:22:48;;;;;;;13.40;9.10;;;;;;;25.04;54.66;94889.38;5053949;28;20183;-80
2022/05/25 05:25:14;;;;;;;14.75;10.82;;;;;;;25.38;52.75;94883.53;5047865;28;20198;-80
2022/05/25 05:27:39;;;;;;;25.17;16.13;;;;;;;26.01;52.10;94912.34;5039844;28;20191;-80
2022/05/25 05:30:06;;;;;;;38.05;22.20;;;;;;;26.12;50.75;94869.72;5042827;28;20186;-80
2022/05/25 05:32:31;;;;;;;19.92;12.32;;;;;;;26.62;51.19;94903.53;5044822;28;20208;-80
2022/05/25 05:34:58;;;;;;;12.77;8.35;;;;;;;26.97;48.99;94914.53;5045299;28;20246;-80
2022/05/25 05:37:33;;;;;;;19.08;11.95;;;;;;;27.25;47.78;94901.56;5045365;28;21921;-80
2022/05/25 05:39:59;;;;;;;10.80;6.85;;;;;;;27.71;48.11;94923.47;5053507;28;20173;-80
2022/05/25 05:42:25;;;;;;;12.27;8.15;;;;;;;27.91;47.49;94938.31;5053223;28;20254;-80
2022/05/25 05:45:20;;;;;;;18.00;9.85;;;;;;;28.13;46.71;94932.72;5052753;28;20213;-80
2022/05/25 05:48:13;;;;;;;13.25;8.75;;;;;;;28.04;46.05;94925.72;5039200;28;20191;-80
2022/05/25 05:50:41;;;;;;;15.38;6.90;;;;;;;28.03;46.70;94935.75;5052227;28;20182;-80
2022/05/25 05:53:10;;;;;;;9.05;7.03;;;;;;;28.07;46.54;94938.63;5053308;28;20250;-81
2022/05/25 05:55:36;;;;;;;16.38;11.10;;;;;;;27.89;46.56;94889.09;5053007;28;20199;-81
2022/05/25 05:58:03;;;;;;;14.93;8.95;;;;;;;27.76;46.29;94933.38;5053147;28;20183;-83
2022/05/25 06:00:29;;;;;;;8.50;6.63;;;;;;;26.72;49.16;94928.69;5053014;28;20225;-83
2022/05/25 06:02:54;;;;;;;8.77;6.40;;;;;;;26.52;51.18;94932.72;5041854;28;20194;-82
2022/05/25 06:05:20;;;;;;;12.63;6.65;;;;;;;26.63;50.03;94921.34;5042950;28;20281;-82
2022/05/25 06:07:45;;;;;;;9.75;7.65;;;;;;;26.37;49.41;94889.91;5052693;28;20171;-82
2022/05/25 06:10:11;;;;;;;11.70;7.28;;;;;;;26.59;49.38;94914.97;5052899;28;20996;-82
2022/05/25 06:12:37;;;;;;;13.68;7.68;;;;;;;26.49;50.15;94944.13;5034657;28;20202;-81
2022/05/25 06:19:25;;;;;;;15.63;8.05;;;;;;;25.36;50.94;94901.09;5046155;28;20200;-82
2022/05/25 06:20:34;;;;;;;16.77;8.82;;;;;;;25.21;52.22;94907.63;5048121;28;20186;-84
2022/05/25 06:23:00;;;;;;;20.77;10.98;;;;;;;24.32;53.81;94867.56;5034729;28;20171;-83
2022/05/25 06:25:26;;;;;;;27.02;11.13;;;;;;;24.42;54.94;94936.56;5052645;28;20171;-82
2022/05/25 06:27:51;;;;;;;11.68;8.23;;;;;;;24.54;55.01;94946.88;5052378;28;20182;-82
2022/05/25 06:30:17;;;;;;;13.60;9.10;;;;;;;23.80;55.20;94846.38;5052365;28;20186;-83
2022/05/25 06:32:42;;;;;;;11.88;8.68;;;;;;;24.33;54.96;94884.50;5052330;28;20639;-82
2022/05/25 06:35:10;;;;;;;18.00;9.25;;;;;;;24.94;53.61;94905.75;5034371;28;20289;-82
2022/05/25 06:37:35;;;;;;;14.55;8.50;;;;;;;25.50;54.10;94920.78;5052234;28;20695;-82
2022/05/25 06:40:02;;;;;;;22.85;9.98;;;;;;;26.05;52.89;94934.09;5052069;28;20182;-83
2022/05/25 06:42:27;;;;;;;14.38;7.95;;;;;;;26.25;53.02;94909.34;5052449;28;20195;-81
2022/05/25 06:44:53;;;;;;;13.38;8.32;;;;;;;26.85;50.66;94933.19;5052188;28;20240;-81
2022/05/25 06:47:19;;;;;;;19.60;8.98;;;;;;;26.46;48.93;94906.97;5052005;28;20187;-84
2022/05/25 06:49:45;;;;;;;10.48;8.20;;;;;;;26.18;50.35;94909.78;5051875;28;20174;-83
2022/05/25 06:52:12;;;;;;;18.73;9.07;;;;;;;26.22;51.15;94947.72;5051932;28;20729;-83
2022/05/25 06:54:38;;;;;;;17.10;8.55;;;;;;;25.97;50.34;94940.22;5033785;28;20195;-83
2022/05/25 06:57:04;;;;;;;12.30;8.43;;;;;;;25.97;51.90;94949.13;5051432;28;20561;-82
2022/05/25 06:59:30;;;;;;;14.07;7.72;;;;;;;26.13;51.34;94906.38;5051711;28;20705;-83
2022/05/25 07:01:56;;;;;;;14.05;9.18;;;;;;;26.71;49.75;94946.00;5046851;28;20189;-82
2022/05/25 07:04:22;;;;;;;11.40;7.88;;;;;;;26.43;50.33;94889.47;5050594;28;20167;-83
2022/05/25 07:06:47;;;;;;;15.70;9.60;;;;;;;26.89;49.64;94928.78;5046618;28;20167;-82
2022/05/25 07:09:13;;;;;;;14.23;8.27;;;;;;;26.62;49.06;94897.34;5048342;28;20241;-82
2022/05/25 07:11:39;;;;;;;18.88;8.93;;;;;;;26.62;49.51;94946.75;5043298;28;20186;-82
2022/05/25 07:14:05;;;;;;;13.15;9.93;;;;;;;26.54;49.16;94954.81;5051167;28;20254;-82
2022/05/25 07:16:31;;;;;;;16.35;9.18;;;;;;;26.35;50.53;94949.59;5049725;28;20202;-81
2022/05/25 07:18:57;;;;;;;18.95;8.48;;;;;;;26.22;52.50;94926.13;5048164;28;20227;-82
2022/05/25 07:21:31;;;;;;;12.93;7.72;;;;;;;26.61;51.46;94934.38;5038686;28;20172;-82
2022/05/25 07:23:58;;;;;;;10.85;7.78;;;;;;;27.27;50.88;94946.09;5049314;28;20643;-80
2022/05/25 07:26:27;;;;;;;10.93;7.82;;;;;;;27.44;47.23;94945.34;5049216;28;20171;-81
2022/05/25 07:28:53;;;;;;;11.95;8.00;;;;;;;27.54;48.29;94942.38;5032053;28;20214;-83
2022/05/25 07:31:27;;;;;;;17.92;8.18;;;;;;;26.96;48.30;94946.16;5050069;28;20198;-83
2022/05/25 07:34:04;;;;;;;12.82;7.82;;;;;;;26.48;51.04;94942.53;5050260;28;20682;-82
2022/05/25 07:36:31;;;;;;;11.50;7.78;;;;;;;26.52;51.91;94941.63;5049651;28;20191;-83
2022/05/25 07:39:01;;;;;;;15.35;7.03;;;;;;;26.78;53.26;94955.25;5048759;28;20183;-83
2022/05/25 07:41:28;;;;;;;9.25;6.97;;;;;;;27.24;48.82;94941.34;5030947;28;20183;-82
2022/05/25 07:43:57;;;;;;;16.63;7.60;;;;;;;27.06;48.34;94939.69;5041568;28;20203;-83
2022/05/25 07:46:27;;;;;;;13.25;6.40;;;;;;;27.13;47.71;94936.53;5041470;28;20164;-85
2022/05/25 07:48:52;;;;;;;13.23;7.95;;;;;;;26.97;48.25;94936.16;5049170;28;20268;-83
2022/05/25 07:51:19;;;;;;;11.85;7.60;;;;;;;27.19;49.83;94921.75;5039480;28;20255;-83
2022/05/25 07:53:57;;;;;;;12.32;7.45;;;;;;;27.28;47.42;94885.50;5043554;28;20234;-83
2022/05/25 07:56:29;;;;;;;16.60;7.07;;;;;;;27.95;47.31;94938.44;5042492;28;20199;-83
2022/05/25 07:58:59;;;;;;;12.80;6.65;;;;;;;28.50;47.78;94941.31;5046951;28;20270;-83
2022/05/25 08:06:58;;;;;;;14.00;6.55;;;;;;;28.19;46.78;94916.34;5051042;28;20642;-85
2022/05/25 08:09:25;;;;;;;13.48;9.60;;;;;;;28.42;46.27;94937.50;5050907;28;20167;-83
2022/05/25 08:11:51;;;;;;;13.52;7.90;;;;;;;27.97;45.63;94909.16;5050937;28;20673;-82
2022/05/25 08:14:16;;;;;;;11.55;6.50;;;;;;;28.12;48.53;94920.28;5049245;28;20193;-83
2022/05/25 08:16:42;;;;;;;15.68;7.97;;;;;;;27.89;44.95;94882.88;5029584;28;20592;-86
2022/05/25 08:19:07;;;;;;;14.10;7.13;;;;;;;28.36;47.94;94930.66;5050545;28;20234;-82
2022/05/25 08:21:33;;;;;;;20.52;8.07;;;;;;;28.20;45.69;94917.91;5050530;28;20176;-85
2022/05/25 08:23:58;;;;;;;22.25;6.95;;;;;;;27.97;47.04;94925.41;5043492;28;20179;-82
2022/05/25 08:26:24;;;;;;;12.88;7.22;;;;;;;27.95;46.68;94927.63;5048423;28;20168;-83
2022/05/25 08:28:50;;;;;;;13.70;6.65;;;;;;;28.13;49.27;94923.78;5041479;28;20178;-82
2022/05/25 08:31:15;;;;;;;14.40;7.53;;;;;;;28.69;45.93;94949.09;5038703;28;20187;-82
2022/05/25 08:33:43;;;;;;;13.65;7.43;;;;;;;28.70;46.19;94943.34;5040731;28;20175;-83
2022/05/25 08:36:09;;;;;;;14.32;7.50;;;;;;;28.35;45.84;94895.78;5049908;28;20202;-84
2022/05/25 08:38:34;;;;;;;12.65;7.47;;;;;;;28.34;46.85;94946.44;5050250;28;20616;-83
2022/05/25 08:41:00;;;;;;;15.50;7.43;;;;;;;28.47;46.17;94944.66;5050732;28;20171;-82
2022/05/25 08:43:40;;;;;;;12.90;6.90;;;;;;;28.82;48.62;94934.56;5051760;28;20195;-84
2022/05/25 08:46:08;;;;;;;13.95;7.63;;;;;;;28.71;45.41;94909.72;5056018;28;20218;-83
2022/05/25 08:48:34;;;;;;;13.07;6.78;;;;;;;28.87;45.24;94943.31;5047244;28;20246;-83
2022/05/25 08:51:14;;;;;;;12.10;6.93;;;;;;;28.82;44.86;94916.38;5047030;28;20182;-86
2022/05/25 08:53:40;;;;;;;19.90;7.72;;;;;;;28.93;44.81;94941.22;5052573;28;20178;-82
2022/05/25 08:56:18;;;;;;;12.85;7.50;;;;;;;28.73;44.43;94948.09;5052479;28;20215;-83
2022/05/25 08:58:53;;;;;;;12.82;7.30;;;;;;;28.97;46.63;94952.22;5056324;28;20185;-82
2022/05/25 09:01:29;;;;;;;12.70;6.68;;;;;;;28.91;45.26;94940.75;5054784;28;20257;-82
2022/05/25 09:04:03;;;;;;;14.65;7.60;;;;;;;28.69;46.17;94951.78;5053698;28;20171;-81
2022/05/25 09:06:47;;;;;;;14.98;7.80;;;;;;;28.22;45.84;94907.56;5053790;28;20232;-82
2022/05/25 09:09:23;;;;;;;14.82;7.70;;;;;;;28.13;49.19;94902.13;5053948;28;20258;-82
2022/05/25 09:11:54;;;;;;;16.15;6.63;;;;;;;28.57;48.52;94932.69;5053684;28;20170;-85
2022/05/25 09:14:26;;;;;;;15.27;7.10;;;;;;;28.66;49.59;94904.44;5053970;28;20309;-82
2022/05/25 09:16:56;;;;;;;16.48;7.43;;;;;;;29.03;48.74;94950.91;5054601;28;20194;-83
2022/05/25 09:19:29;;;;;;;22.10;7.20;;;;;;;28.84;47.95;94908.72;5056831;28;20790;-83
2022/05/25 09:22:06;;;;;;;13.15;7.35;;;;;;;28.92;45.84;94912.50;5053727;28;20175;-83
2022/05/25 09:24:32;;;;;;;11.82;6.85;;;;;;;28.92;47.07;94965.94;5053165;28;20167;-83
2022/05/25 09:27:04;;;;;;;19.10;7.70;;;;;;;28.83;45.01;94955.91;5052943;28;20210;-82
2022/05/25 09:29:30;;;;;;;11.82;7.25;;;;;;;28.73;49.29;94956.22;5053553;28;20174;-83
2022/05/25 09:32:22;;;;;;;12.70;6.03;;;;;;;28.88;47.58;94954.97;5053250;28;20174;-83
2022/05/25 09:34:56;;;;;;;16.92;6.50;;;;;;;28.66;46.29;94909.88;5049817;28;20301;-83
2022/05/25 09:37:44;;;;;;;16.88;7.40;;;;;;;28.80;49.81;94953.09;5051533;28;21174;-83
2022/05/25 09:40:20;;;;;;;12.07;7.07;;;;;;;28.76;47.99;94952.09;5052890;28;20689;-82
2022/05/25 09:42:51;;;;;;;13.65;7.10;;;;;;;28.66;45.95;94947.00;5035423;28;20186;-82
2022/05/25 09:45:17;;;;;;;12.73;6.78;;;;;;;28.41;48.56;94929.69;5035113;28;20564;-83
2022/05/25 09:47:49;;;;;;;13.73;7.50;;;;;;;28.32;47.53;94945.16;5053856;28;20182;-83
2022/05/25 09:50:24;;;;;;;13.73;6.30;;;;;;;28.17;46.06;94940.25;5053199;28;20171;-83
2022/05/25 09:52:51;;;;;;;12.52;6.43;;;;;;;28.14;47.90;94937.00;5053224;28;20646;-83
2022/05/25 09:55:29;;;;;;;9.73;6.43;;;;;;;28.19;50.65;94925.28;5052137;28;20282;-83
2022/05/25 09:58:09;;;;;;;11.13;6.70;;;;;;;28.18;49.61;94899.31;5052703;28;20187;-83
2022/05/25 10:00:52;;;;;;;12.40;6.18;;;;;;;28.31;49.62;94903.72;5052948;28;20611;-82
2022/05/25 10:03:41;;;;;;;13.20;7.13;;;;;;;28.17;47.96;94908.53;5053217;28;20244;-83
2022/05/25 10:06:31;;;;;;;12.32;6.53;;;;;;;28.12;51.35;94903.25;5052610;28;20171;-83
2022/05/25 10:09:21;;;;;;;19.13;6.85;;;;;;;28.21;47.26;94895.94;5053461;28;20179;-82
2022/05/25 10:11:48;;;;;;;13.90;6.68;;;;;;;28.32;47.86;94901.81;5041139;28;20217;-82
2022/05/25 10:14:38;;;;;;;13.27;6.60;;;;;;;28.38;48.69;94898.63;5052542;28;20198;-83
2022/05/25 10:17:16;;;;;;;18.20;6.85;;;;;;;28.52;47.91;94903.84;5035025;28;20190;-82
2022/05/25 10:19:53;;;;;;;12.50;6.80;;;;;;;28.38;47.42;94876.16;5050665;28;20663;-83
2022/05/25 10:22:44;;;;;;;14.75;7.35;;;;;;;28.62;49.93;94892.69;5051726;28;20185;-83
2022/05/25 10:25:27;;;;;;;13.57;6.85;;;;;;;28.76;46.66;94904.13;5051307;28;20203;-83
2022/05/25 10:27:54;;;;;;;12.38;6.50;;;;;;;28.73;46.25;94903.94;5033608;28;20552;-83
2022/05/25 10:36:49;;;;;;;13.65;6.53;;;;;;;28.66;45.80;94877.34;5052431;28;20329;-83
2022/05/25 10:39:32;;;;;;;14.63;6.43;;;;;;;28.73;46.35;94883.06;5052330;28;20171;-82
2022/05/25 10:41:58;;;;;;;22.27;6.07;;;;;;;28.78;45.78;94880.22;5051458;28;20163;-82
2022/05/25 10:44:27;;;;;;;11.60;6.13;;;;;;;28.79;47.10;94868.25;5052175;28;20167;-83
2022/05/25 10:46:54;;;;;;;16.42;5.78;;;;;;;28.68;44.49;94866.19;5034096;28;20202;-82
2022/05/25 10:49:30;;;;;;;14.45;6.13;;;;;;;28.61;44.43;94864.00;5051586;28;20175;-83
2022/05/25 10:52:31;;;;;;;14.27;6.18;;;;;;;28.64;45.63;94867.94;5051751;28;20175;-83
2022/05/25 10:54:57;;;;;;;10.52;5.88;;;;;;;28.65;46.45;94843.22;5018550;28;20229;-83
2022/05/25 10:57:35;;;;;;;19.80;6.80;;;;;;;28.93;45.88;94865.31;5034254;28;20206;-83
2022/05/25 11:00:03;;;;;;;10.68;5.35;;;;;;;29.12;45.84;94859.47;5050367;28;20190;-83
2022/05/25 11:02:47;;;;;;;16.58;6.38;;;;;;;29.27;46.43;94853.47;5051834;28;20209;-83
2022/05/25 11:05:49;;;;;;;13.88;4.80;;;;;;;29.32;43.83;94855.97;5051730;28;20257;-83
2022/05/25 11:08:35;;;;;;;14.40;5.05;;;;;;;29.43;43.62;94843.66;5051925;28;20171;-83
2022/05/25 11:11:10;;;;;;;13.18;6.15;;;;;;;29.57;43.28;94840.69;5051445;28;20170;-83
2022/05/25 11:13:51;;;;;;;17.55;5.38;;;;;;;29.69;43.12;94837.25;5051658;28;20198;-83
2022/05/25 11:16:43;;;;;;;11.75;4.53;;;;;;;29.78;40.38;94835.25;5033341;28;20195;-83
2022/05/25 11:19:46;;;;;;;12.38;5.28;;;;;;;29.87;42.50;94830.53;5051450;28;20221;-83
2022/05/25 11:22:46;;;;;;;7.15;4.68;;;;;;;30.01;42.41;94836.53;5048390;28;20254;-83
2022/05/25 11:25:43;;;;;;;12.75;5.15;;;;;;;30.16;43.19;94832.38;5050534;28;20167;-83
2022/05/25 11:28:39;;;;;;;7.05;4.30;;;;;;;30.35;40.01;94830.75;5049929;28;20565;-83
2022/05/25 11:31:35;;;;;;;11.98;5.28;;;;;;;30.17;37.71;94806.81;5050335;28;20565;-83
2022/05/25 11:34:15;;;;;;;10.35;4.53;;;;;;;30.38;38.02;94840.91;5050536;28;20167;-83
2022/05/25 11:37:07;;;;;;;10.70;4.65;;;;;;;30.18;36.20;94824.69;5050628;28;20191;-83
2022/05/25 11:39:33;;;;;;;13.57;3.90;;;;;;;30.14;36.95;94827.28;5050143;28;20257;-83
2022/05/25 11:42:28;;;;;;;17.08;5.03;;;;;;;30.21;38.27;94827.50;5050818;28;20265;-83
2022/05/25 11:45:22;;;;;;;15.57;4.25;;;;;;;30.35;38.57;94816.34;5008328;28;20187;-83
2022/05/25 11:47:59;;;;;;;14.13;3.90;;;;;;;30.48;37.46;94815.25;5007893;28;20191;-83
2022/05/25 11:50:37;;;;;;;11.15;4.10;;;;;;;30.57;36.92;94812.44;5050831;28;20201;-83
2022/05/25 11:53:06;;;;;;;15.70;4.97;;;;;;;30.58;35.82;94811.31;5051112;28;20166;-83
2022/05/25 11:55:56;;;;;;;13.38;4.43;;;;;;;30.61;38.57;94810.66;5050893;28;20248;-83
2022/05/25 11:58:25;;;;;;;9.63;4.55;;;;;;;30.60;34.87;94809.84;5049159;28;20202;-82
2022/05/25 12:01:24;;;;;;;13.18;4.20;;;;;;;30.61;36.25;94805.22;5050656;28;20179;-83
2022/05/25 12:04:27;;;;;;;15.18;3.95;;;;;;;30.67;34.80;94801.94;5049997;28;20260;-83
2022/05/25 12:07:16;;;;;;;15.18;3.15;;;;;;;30.77;34.62;94789.81;5050168;28;20678;-83
2022/05/25 12:10:08;;;;;;;14.10;3.35;;;;;;;30.86;33.37;94793.22;5049254;28;20164;-83